createdAt,value
2019-04-28T00:00:44.062Z,1006.78
2019-04-28T00:01:44.013Z,1006.79
2019-04-28T00:02:44.003Z,1006.78
2019-04-28T00:03:43.992Z,1006.78
2019-04-28T00:04:43.983Z,1006.82
2019-04-28T00:05:43.971Z,1006.82
2019-04-28T00:06:43.982Z,1006.83
2019-04-28T00:07:43.948Z,1006.83
2019-04-28T00:08:43.936Z,1006.84
2019-04-28T00:09:43.927Z,1006.82
2019-04-28T00:10:43.920Z,1006.81
2019-04-28T00:11:43.942Z,1006.81
2019-04-28T00:12:43.894Z,1006.80
2019-04-28T00:13:43.886Z,1006.80
2019-04-28T00:14:43.873Z,1006.82
2019-04-28T00:15:43.861Z,1006.78
2019-04-28T00:16:43.851Z,1006.79
2019-04-28T00:17:43.875Z,1006.79
2019-04-28T00:18:43.831Z,1006.80
2019-04-28T00:19:43.818Z,1006.81
2019-04-28T00:20:43.808Z,1006.84
2019-04-28T00:21:43.796Z,1006.82
2019-04-28T00:22:43.786Z,1006.87
2019-04-28T00:23:43.812Z,1006.88
2019-04-28T00:24:43.762Z,1006.90
2019-04-28T00:25:43.753Z,1006.90
2019-04-28T00:26:43.747Z,1006.86
2019-04-28T00:27:43.732Z,1006.83
2019-04-28T00:28:43.720Z,1006.88
2019-04-28T00:29:46.251Z,1006.87
2019-04-28T00:30:43.698Z,1006.87
2019-04-28T00:31:43.687Z,1006.93
2019-04-28T00:32:43.679Z,1006.94
2019-04-28T00:33:43.703Z,1006.98
2019-04-28T00:34:43.680Z,1006.95
2019-04-28T00:35:43.645Z,1006.96
2019-04-28T00:36:43.640Z,1006.97
2019-04-28T00:37:43.628Z,1006.98
2019-04-28T00:38:43.611Z,1007.00
2019-04-28T00:39:43.624Z,1006.91
2019-04-28T00:40:43.589Z,1006.93
2019-04-28T00:41:43.577Z,1006.91
2019-04-28T00:42:43.566Z,1006.85
2019-04-28T00:43:43.555Z,1006.88
2019-04-28T00:44:43.648Z,1006.85
2019-04-28T00:45:43.534Z,1006.87
2019-04-28T00:46:43.524Z,1006.90
2019-04-28T00:47:43.514Z,1006.89
2019-04-28T00:48:43.502Z,1006.96
2019-04-28T00:49:43.491Z,1006.95
2019-04-28T00:50:43.822Z,1006.93
2019-04-28T00:51:43.476Z,1006.94
2019-04-28T00:52:43.459Z,1006.93
2019-04-28T00:53:43.449Z,1006.99
2019-04-28T00:54:43.437Z,1006.96
2019-04-28T00:55:43.429Z,1006.97
2019-04-28T00:56:43.439Z,1006.97
2019-04-28T00:57:43.406Z,1006.95
2019-04-28T00:58:43.397Z,1006.96
2019-04-28T00:59:54.151Z,1006.98
2019-04-28T01:00:44.370Z,1006.97
2019-04-28T01:01:43.401Z,1007.00
2019-04-28T01:02:43.349Z,1006.95
2019-04-28T01:03:43.337Z,1006.98
2019-04-28T01:04:43.325Z,1006.97
2019-04-28T01:05:43.316Z,1007.00
2019-04-28T01:06:43.304Z,1006.96
2019-04-28T01:07:43.319Z,1006.97
2019-04-28T01:08:43.296Z,1007.03
2019-04-28T01:09:43.271Z,1006.99
2019-04-28T01:10:43.260Z,1006.99
2019-04-28T01:11:43.251Z,1007.00
2019-04-28T01:12:46.340Z,1006.98
2019-04-28T01:13:43.229Z,1006.98
2019-04-28T01:14:43.532Z,1007.03
2019-04-28T01:15:43.206Z,1007.06
2019-04-28T01:16:43.195Z,1007.02
2019-04-28T01:17:43.223Z,1007.01
2019-04-28T01:18:43.171Z,1007.06
2019-04-28T01:19:43.162Z,1007.12
2019-04-28T01:20:43.151Z,1007.09
2019-04-28T01:21:43.140Z,1007.16
2019-04-28T01:22:43.127Z,1007.14
2019-04-28T01:23:43.154Z,1007.16
2019-04-28T01:24:43.110Z,1007.21
2019-04-28T01:25:43.096Z,1007.20
2019-04-28T01:26:43.083Z,1007.23
2019-04-28T01:27:43.073Z,1007.26
2019-04-28T01:28:43.064Z,1007.22
2019-04-28T01:29:43.088Z,1007.25
2019-04-28T01:30:43.040Z,1007.24
2019-04-28T01:31:43.034Z,1007.25
2019-04-28T01:32:43.016Z,1007.25
2019-04-28T01:33:43.006Z,1007.23
2019-04-28T01:34:42.995Z,1007.27
2019-04-28T01:35:43.009Z,1007.24
2019-04-28T01:36:42.977Z,1007.25
2019-04-28T01:37:42.973Z,1007.23
2019-04-28T01:38:42.948Z,1007.21
2019-04-28T01:39:42.937Z,1007.29
2019-04-28T01:40:42.953Z,1007.30
2019-04-28T01:41:42.915Z,1007.28
2019-04-28T01:42:42.903Z,1007.27
2019-04-28T01:43:42.892Z,1007.26
2019-04-28T01:44:42.883Z,1007.28
2019-04-28T01:45:42.906Z,1007.32
2019-04-28T01:46:42.863Z,1007.26
2019-04-28T01:47:42.862Z,1007.31
2019-04-28T01:48:42.839Z,1007.35
2019-04-28T01:49:42.827Z,1007.36
2019-04-28T01:50:42.813Z,1007.36
2019-04-28T01:51:42.839Z,1007.39
2019-04-28T01:52:42.794Z,1007.35
2019-04-28T01:53:42.781Z,1007.42
2019-04-28T01:54:42.774Z,1007.40
2019-04-28T01:55:42.761Z,1007.40
2019-04-28T01:56:42.750Z,1007.40
2019-04-28T01:57:42.782Z,1007.42
2019-04-28T01:58:42.728Z,1007.41
2019-04-28T01:59:42.719Z,1007.42
2019-04-28T02:00:42.709Z,1007.46
2019-04-28T02:01:42.698Z,1007.49
2019-04-28T02:02:42.720Z,1007.48
2019-04-28T02:03:42.675Z,1007.49
2019-04-28T02:04:42.662Z,1007.48
2019-04-28T02:05:42.657Z,1007.48
2019-04-28T02:06:42.644Z,1007.48
2019-04-28T02:07:42.629Z,1007.47
2019-04-28T02:08:42.645Z,1007.46
2019-04-28T02:09:42.609Z,1007.46
2019-04-28T02:10:42.610Z,1007.44
2019-04-28T02:11:42.592Z,1007.49
2019-04-28T02:12:42.578Z,1007.47
2019-04-28T02:13:42.602Z,1007.49
2019-04-28T02:14:42.555Z,1007.47
2019-04-28T02:15:42.549Z,1007.49
2019-04-28T02:16:42.534Z,1007.48
2019-04-28T02:17:42.525Z,1007.49
2019-04-28T02:18:42.513Z,1007.51
2019-04-28T02:19:42.537Z,1007.53
2019-04-28T02:20:42.491Z,1007.50
2019-04-28T02:21:42.483Z,1007.48
2019-04-28T02:22:42.471Z,1007.54
2019-04-28T02:23:42.459Z,1007.54
2019-04-28T02:24:42.448Z,1007.55
2019-04-28T02:25:42.463Z,1007.55
2019-04-28T02:26:42.427Z,1007.55
2019-04-28T02:27:42.416Z,1007.60
2019-04-28T02:28:42.405Z,1007.60
2019-04-28T02:29:42.395Z,1007.66
2019-04-28T02:30:49.531Z,1007.56
2019-04-28T02:31:43.372Z,1007.64
2019-04-28T02:32:42.364Z,1007.72
2019-04-28T02:33:42.361Z,1007.71
2019-04-28T02:34:42.340Z,1007.68
2019-04-28T02:35:42.544Z,1007.74
2019-04-28T02:36:42.322Z,1007.70
2019-04-28T02:37:42.309Z,1007.74
2019-04-28T02:38:42.298Z,1007.73
2019-04-28T02:39:42.289Z,1007.73
2019-04-28T02:40:42.317Z,1007.69
2019-04-28T02:41:42.268Z,1007.68
2019-04-28T02:42:42.254Z,1007.67
2019-04-28T02:43:42.269Z,1007.69
2019-04-28T02:44:42.233Z,1007.69
2019-04-28T02:45:42.231Z,1007.66
2019-04-28T02:46:42.238Z,1007.67
2019-04-28T02:47:42.419Z,1007.69
2019-04-28T02:48:42.200Z,1007.66
2019-04-28T02:49:42.181Z,1007.69
2019-04-28T02:50:42.175Z,1007.76
2019-04-28T02:51:42.182Z,1007.74
2019-04-28T02:52:42.150Z,1007.74
2019-04-28T02:53:42.137Z,1007.79
2019-04-28T02:54:42.124Z,1007.82
2019-04-28T02:55:42.117Z,1007.82
2019-04-28T02:56:43.753Z,1007.87
2019-04-28T02:57:42.092Z,1007.88
2019-04-28T02:58:42.082Z,1007.91
2019-04-28T02:59:44.727Z,1007.91
2019-04-28T03:01:00.453Z,1007.89
2019-04-28T03:01:43.083Z,1007.97
2019-04-28T03:02:42.040Z,1007.98
2019-04-28T03:03:42.032Z,1007.97
2019-04-28T03:04:42.020Z,1008.00
2019-04-28T03:05:42.008Z,1007.96
2019-04-28T03:06:41.997Z,1008.00
2019-04-28T03:07:42.021Z,1008.02
2019-04-28T03:08:41.973Z,1008.05
2019-04-28T03:09:41.968Z,1008.01
2019-04-28T03:10:41.951Z,1008.02
2019-04-28T03:11:43.144Z,1008.09
2019-04-28T03:12:41.933Z,1008.09
2019-04-28T03:13:41.972Z,1008.11
2019-04-28T03:14:44.027Z,1008.11
2019-04-28T03:15:41.898Z,1008.08
2019-04-28T03:16:41.887Z,1008.08
2019-04-28T03:17:41.878Z,1008.13
2019-04-28T03:18:41.866Z,1008.16
2019-04-28T03:19:41.911Z,1008.15
2019-04-28T03:20:42.139Z,1008.08
2019-04-28T03:21:41.832Z,1008.11
2019-04-28T03:22:41.819Z,1008.11
2019-04-28T03:23:41.809Z,1008.13
2019-04-28T03:24:41.823Z,1008.14
2019-04-28T03:25:41.786Z,1008.14
2019-04-28T03:26:41.776Z,1008.14
2019-04-28T03:27:41.768Z,1008.12
2019-04-28T03:28:41.754Z,1008.13
2019-04-28T03:29:41.781Z,1008.16
2019-04-28T03:30:43.831Z,1008.19
2019-04-28T03:32:04.179Z,1008.16
2019-04-28T03:32:52.478Z,1008.13
2019-04-28T03:33:48.724Z,1008.17
2019-04-28T03:34:43.948Z,1008.17
2019-04-28T03:35:44.056Z,1008.14
2019-04-28T03:36:41.665Z,1008.14
2019-04-28T03:37:41.655Z,1008.20
2019-04-28T03:38:41.643Z,1008.14
2019-04-28T03:39:41.631Z,1008.18
2019-04-28T03:40:41.698Z,1008.13
2019-04-28T03:41:41.612Z,1008.19
2019-04-28T03:42:41.606Z,1008.19
2019-04-28T03:43:41.592Z,1008.21
2019-04-28T03:44:41.752Z,1008.20
2019-04-28T03:45:41.588Z,1008.23
2019-04-28T03:46:41.554Z,1008.23
2019-04-28T03:47:41.545Z,1008.24
2019-04-28T03:48:41.532Z,1008.23
2019-04-28T03:49:43.371Z,1008.25
2019-04-28T03:50:41.707Z,1008.28
2019-04-28T03:51:41.498Z,1008.27
2019-04-28T03:52:41.679Z,1008.30
2019-04-28T03:53:41.477Z,1008.34
2019-04-28T03:54:41.466Z,1008.30
2019-04-28T03:55:41.777Z,1008.28
2019-04-28T03:56:41.453Z,1008.32
2019-04-28T03:57:41.501Z,1008.32
2019-04-28T03:58:41.421Z,1008.31
2019-04-28T03:59:43.835Z,1008.33
2019-04-28T04:00:41.403Z,1008.33
2019-04-28T04:01:55.395Z,1008.40
2019-04-28T04:02:42.375Z,1008.35
2019-04-28T04:03:41.942Z,1008.37
2019-04-28T04:04:41.673Z,1008.39
2019-04-28T04:05:41.357Z,1008.33
2019-04-28T04:06:41.330Z,1008.36
2019-04-28T04:07:43.233Z,1008.32
2019-04-28T04:08:41.356Z,1008.35
2019-04-28T04:09:41.503Z,1008.33
2019-04-28T04:10:41.298Z,1008.37
2019-04-28T04:11:41.278Z,1008.40
2019-04-28T04:12:41.471Z,1008.40
2019-04-28T04:13:41.766Z,1008.44
2019-04-28T04:14:47.504Z,1008.44
2019-04-28T04:15:41.474Z,1008.41
2019-04-28T04:16:41.222Z,1008.45
2019-04-28T04:17:41.504Z,1008.41
2019-04-28T04:18:41.230Z,1008.40
2019-04-28T04:19:41.196Z,1008.43
2019-04-28T04:20:41.224Z,1008.46
2019-04-28T04:21:41.168Z,1008.47
2019-04-28T04:22:41.307Z,1008.46
2019-04-28T04:23:41.378Z,1008.51
2019-04-28T04:24:41.134Z,1008.52
2019-04-28T04:25:41.847Z,1008.52
2019-04-28T04:26:41.234Z,1008.52
2019-04-28T04:27:41.103Z,1008.53
2019-04-28T04:28:41.852Z,1008.57
2019-04-28T04:29:43.620Z,1008.54
2019-04-28T04:30:41.195Z,1008.53
2019-04-28T04:31:41.492Z,1008.59
2019-04-28T04:32:41.331Z,1008.59
2019-04-28T04:33:41.493Z,1008.56
2019-04-28T04:34:41.057Z,1008.59
2019-04-28T04:35:43.554Z,1008.61
2019-04-28T04:36:41.865Z,1008.62
2019-04-28T04:37:40.995Z,1008.63
2019-04-28T04:38:45.877Z,1008.62
2019-04-28T04:39:42.008Z,1008.68
2019-04-28T04:40:41.492Z,1008.70
2019-04-28T04:41:43.827Z,1008.67
2019-04-28T04:42:40.941Z,1008.76
2019-04-28T04:43:41.695Z,1008.78
2019-04-28T04:44:41.650Z,1008.79
2019-04-28T04:45:40.930Z,1008.80
2019-04-28T04:46:41.597Z,1008.76
2019-04-28T04:47:40.885Z,1008.76
2019-04-28T04:48:40.908Z,1008.79
2019-04-28T04:49:40.862Z,1008.79
2019-04-28T04:50:41.285Z,1008.79
2019-04-28T04:51:43.854Z,1008.81
2019-04-28T04:52:40.828Z,1008.81
2019-04-28T04:53:40.916Z,1008.79
2019-04-28T04:54:40.807Z,1008.81
2019-04-28T04:55:41.138Z,1008.81
2019-04-28T04:56:40.786Z,1008.79
2019-04-28T04:57:40.984Z,1008.75
2019-04-28T04:58:40.951Z,1008.82
2019-04-28T04:59:40.751Z,1008.78
2019-04-28T05:00:43.259Z,1008.75
2019-04-28T05:01:40.964Z,1008.77
2019-04-28T05:02:46.161Z,1008.80
2019-04-28T05:03:41.704Z,1008.85
2019-04-28T05:04:40.694Z,1008.84
2019-04-28T05:05:40.684Z,1008.90
2019-04-28T05:06:41.515Z,1008.96
2019-04-28T05:07:40.692Z,1008.95
2019-04-28T05:08:40.650Z,1009.00
2019-04-28T05:09:40.639Z,1009.00
2019-04-28T05:10:40.627Z,1009.00
2019-04-28T05:11:40.620Z,1008.99
2019-04-28T05:12:40.632Z,1009.01
2019-04-28T05:13:40.594Z,1009.05
2019-04-28T05:14:40.582Z,1009.05
2019-04-28T05:15:40.572Z,1009.03
2019-04-28T05:16:40.563Z,1009.01
2019-04-28T05:17:40.587Z,1009.06
2019-04-28T05:18:41.761Z,1009.06
2019-04-28T05:19:40.530Z,1009.11
2019-04-28T05:20:40.544Z,1009.11
2019-04-28T05:21:40.629Z,1009.17
2019-04-28T05:22:42.640Z,1009.17
2019-04-28T05:23:41.049Z,1009.18
2019-04-28T05:24:40.470Z,1009.22
2019-04-28T05:25:40.461Z,1009.24
2019-04-28T05:26:47.361Z,1009.28
2019-04-28T05:27:41.440Z,1009.34
2019-04-28T05:28:43.316Z,1009.32
2019-04-28T05:29:41.449Z,1009.39
2019-04-28T05:30:43.000Z,1009.44
2019-04-28T05:31:40.398Z,1009.44
2019-04-28T05:32:45.543Z,1009.47
2019-04-28T05:33:42.083Z,1009.47
2019-04-28T05:34:46.538Z,1009.49
2019-04-28T05:35:41.372Z,1009.52
2019-04-28T05:36:44.336Z,1009.52
2019-04-28T05:37:40.562Z,1009.57
2019-04-28T05:38:42.093Z,1009.60
2019-04-28T05:39:40.482Z,1009.61
2019-04-28T05:40:40.321Z,1009.61
2019-04-28T05:41:40.282Z,1009.62
2019-04-28T05:42:40.272Z,1009.62
2019-04-28T05:43:40.566Z,1009.63
2019-04-28T05:44:40.803Z,1009.65
2019-04-28T05:45:40.262Z,1009.65
2019-04-28T05:46:40.416Z,1009.65
2019-04-28T05:47:40.798Z,1009.61
2019-04-28T05:48:40.801Z,1009.64
2019-04-28T05:49:40.194Z,1009.65
2019-04-28T05:50:40.224Z,1009.61
2019-04-28T05:51:40.343Z,1009.67
2019-04-28T05:52:40.441Z,1009.67
2019-04-28T05:53:40.400Z,1009.62
2019-04-28T05:54:40.427Z,1009.62
2019-04-28T05:55:41.899Z,1009.62
2019-04-28T05:56:40.114Z,1009.67
2019-04-28T05:57:40.102Z,1009.65
2019-04-28T05:58:40.293Z,1009.67
2019-04-28T05:59:40.395Z,1009.65
2019-04-28T06:00:41.864Z,1009.63
2019-04-28T06:01:40.580Z,1009.59
2019-04-28T06:02:53.533Z,1009.63
2019-04-28T06:03:41.035Z,1009.62
2019-04-28T06:04:40.513Z,1009.61
2019-04-28T06:05:40.049Z,1009.65
2019-04-28T06:06:40.512Z,1009.60
2019-04-28T06:07:40.549Z,1009.60
2019-04-28T06:08:40.719Z,1009.60
2019-04-28T06:09:40.036Z,1009.57
2019-04-28T06:10:40.042Z,1009.59
2019-04-28T06:11:39.973Z,1009.58
2019-04-28T06:12:40.563Z,1009.56
2019-04-28T06:13:40.218Z,1009.60
2019-04-28T06:14:40.330Z,1009.59
2019-04-28T06:15:39.909Z,1009.58
2019-04-28T06:16:40.606Z,1009.57
2019-04-28T06:17:39.901Z,1009.59
2019-04-28T06:18:42.188Z,1009.59
2019-04-28T06:19:40.362Z,1009.57
2019-04-28T06:20:40.680Z,1009.58
2019-04-28T06:21:39.859Z,1009.58
2019-04-28T06:22:39.822Z,1009.62
2019-04-28T06:23:39.813Z,1009.58
2019-04-28T06:24:39.857Z,1009.63
2019-04-28T06:25:39.789Z,1009.67
2019-04-28T06:26:39.819Z,1009.68
2019-04-28T06:27:39.769Z,1009.65
2019-04-28T06:28:39.756Z,1009.69
2019-04-28T06:29:39.744Z,1009.69
2019-04-28T06:30:39.733Z,1009.71
2019-04-28T06:31:39.723Z,1009.70
2019-04-28T06:32:39.739Z,1009.69
2019-04-28T06:33:39.699Z,1009.67
2019-04-28T06:34:39.705Z,1009.65
2019-04-28T06:35:39.675Z,1009.68
2019-04-28T06:36:39.673Z,1009.73
2019-04-28T06:37:39.692Z,1009.68
2019-04-28T06:38:39.645Z,1009.72
2019-04-28T06:39:39.632Z,1009.71
2019-04-28T06:40:39.621Z,1009.74
2019-04-28T06:41:39.609Z,1009.74
2019-04-28T06:42:39.600Z,1009.77
2019-04-28T06:43:39.625Z,1009.78
2019-04-28T06:44:39.576Z,1009.77
2019-04-28T06:45:39.566Z,1009.80
2019-04-28T06:46:39.555Z,1009.82
2019-04-28T06:47:39.607Z,1009.81
2019-04-28T06:48:39.532Z,1009.83
2019-04-28T06:49:39.548Z,1009.84
2019-04-28T06:50:39.513Z,1009.83
2019-04-28T06:51:39.498Z,1009.84
2019-04-28T06:52:39.487Z,1009.84
2019-04-28T06:53:39.478Z,1009.89
2019-04-28T06:54:39.487Z,1009.89
2019-04-28T06:55:39.454Z,1009.87
2019-04-28T06:56:39.450Z,1009.90
2019-04-28T06:57:39.430Z,1009.91
2019-04-28T06:58:39.422Z,1009.89
2019-04-28T06:59:39.455Z,1009.97
2019-04-28T07:00:39.399Z,1009.91
2019-04-28T07:01:39.389Z,1009.90
2019-04-28T07:02:39.378Z,1009.94
2019-04-28T07:03:39.370Z,1009.91
2019-04-28T07:04:39.354Z,1009.93
2019-04-28T07:05:39.371Z,1009.95
2019-04-28T07:06:39.333Z,1009.93
2019-04-28T07:07:39.324Z,1009.91
2019-04-28T07:08:39.317Z,1009.98
2019-04-28T07:09:39.300Z,1009.95
2019-04-28T07:10:39.340Z,1009.93
2019-04-28T07:11:39.285Z,1009.98
2019-04-28T07:12:39.270Z,1010.01
2019-04-28T07:13:39.256Z,1009.97
2019-04-28T07:14:39.248Z,1009.99
2019-04-28T07:15:39.262Z,1010.01
2019-04-28T07:16:39.225Z,1010.07
2019-04-28T07:17:39.221Z,1010.07
2019-04-28T07:18:39.203Z,1010.06
2019-04-28T07:19:39.191Z,1010.05
2019-04-28T07:20:39.207Z,1010.03
2019-04-28T07:21:39.169Z,1010.08
2019-04-28T07:22:39.159Z,1010.07
2019-04-28T07:23:39.148Z,1010.05
2019-04-28T07:24:39.137Z,1010.05
2019-04-28T07:25:39.150Z,1010.05
2019-04-28T07:26:39.114Z,1010.07
2019-04-28T07:27:39.106Z,1010.11
2019-04-28T07:28:39.094Z,1010.10
2019-04-28T07:29:39.083Z,1010.13
2019-04-28T07:30:39.098Z,1010.12
2019-04-28T07:31:39.064Z,1010.12
2019-04-28T07:32:39.049Z,1010.16
2019-04-28T07:33:39.039Z,1010.11
2019-04-28T07:34:39.026Z,1010.15
2019-04-28T07:35:39.043Z,1010.14
2019-04-28T07:36:39.007Z,1010.18
2019-04-28T07:37:38.994Z,1010.15
2019-04-28T07:38:38.983Z,1010.18
2019-04-28T07:39:38.971Z,1010.16
2019-04-28T07:40:38.986Z,1010.21
2019-04-28T07:41:38.949Z,1010.20
2019-04-28T07:42:38.937Z,1010.21
2019-04-28T07:43:38.927Z,1010.22
2019-04-28T07:44:38.916Z,1010.24
2019-04-28T07:45:38.946Z,1010.22
2019-04-28T07:46:38.894Z,1010.26
2019-04-28T07:47:38.884Z,1010.30
2019-04-28T07:48:38.872Z,1010.30
2019-04-28T07:49:38.862Z,1010.31
2019-04-28T07:50:38.852Z,1010.33
2019-04-28T07:51:38.863Z,1010.32
2019-04-28T07:52:38.830Z,1010.36
2019-04-28T07:53:38.817Z,1010.41
2019-04-28T07:54:40.163Z,1010.41
2019-04-28T07:55:38.796Z,1010.41
2019-04-28T07:56:38.808Z,1010.43
2019-04-28T07:57:38.833Z,1010.43
2019-04-28T07:58:38.761Z,1010.46
2019-04-28T07:59:38.751Z,1010.50
2019-04-28T08:00:38.739Z,1010.54
2019-04-28T08:01:38.766Z,1010.56
2019-04-28T08:02:38.726Z,1010.54
2019-04-28T08:03:48.809Z,1010.54
2019-04-28T08:04:39.698Z,1010.59
2019-04-28T08:05:38.691Z,1010.65
2019-04-28T08:06:38.675Z,1010.64
2019-04-28T08:07:38.703Z,1010.66
2019-04-28T08:08:38.653Z,1010.62
2019-04-28T08:09:38.648Z,1010.72
2019-04-28T08:10:38.630Z,1010.64
2019-04-28T08:11:38.619Z,1010.74
2019-04-28T08:12:38.611Z,1010.70
2019-04-28T08:13:38.641Z,1010.71
2019-04-28T08:14:38.644Z,1010.73
2019-04-28T08:15:38.576Z,1010.74
2019-04-28T08:16:38.564Z,1010.74
2019-04-28T08:17:38.555Z,1010.77
2019-04-28T08:18:38.544Z,1010.77
2019-04-28T08:19:38.567Z,1010.73
2019-04-28T08:20:38.523Z,1010.78
2019-04-28T08:21:38.512Z,1010.78
2019-04-28T08:22:38.501Z,1010.79
2019-04-28T08:23:47.042Z,1010.86
2019-04-28T08:24:39.502Z,1010.86
2019-04-28T08:25:38.471Z,1010.91
2019-04-28T08:26:38.458Z,1010.92
2019-04-28T08:27:38.446Z,1010.95
2019-04-28T08:28:38.436Z,1010.94
2019-04-28T08:29:38.460Z,1010.91
2019-04-28T08:30:38.417Z,1011.01
2019-04-28T08:31:38.404Z,1010.92
2019-04-28T08:32:38.395Z,1010.94
2019-04-28T08:33:38.381Z,1010.95
2019-04-28T08:34:38.370Z,1011.00
2019-04-28T08:35:38.385Z,1010.96
2019-04-28T08:36:38.350Z,1011.02
2019-04-28T08:37:38.339Z,1011.04
2019-04-28T08:38:38.333Z,1011.04
2019-04-28T08:39:38.318Z,1011.07
2019-04-28T08:40:38.333Z,1011.10
2019-04-28T08:41:38.297Z,1011.16
2019-04-28T08:42:38.284Z,1011.09
2019-04-28T08:43:38.274Z,1011.14
2019-04-28T08:44:38.271Z,1011.12
2019-04-28T08:45:38.291Z,1011.17
2019-04-28T08:46:38.251Z,1011.16
2019-04-28T08:47:38.240Z,1011.19
2019-04-28T08:48:38.217Z,1011.24
2019-04-28T08:49:38.205Z,1011.25
2019-04-28T08:50:38.223Z,1011.23
2019-04-28T08:51:38.189Z,1011.32
2019-04-28T08:52:38.191Z,1011.30
2019-04-28T08:53:38.161Z,1011.37
2019-04-28T08:54:38.148Z,1011.34
2019-04-28T08:55:38.165Z,1011.34
2019-04-28T08:56:38.127Z,1011.39
2019-04-28T08:57:38.117Z,1011.32
2019-04-28T08:58:38.105Z,1011.42
2019-04-28T08:59:38.145Z,1011.42
2019-04-28T09:00:38.109Z,1011.41
2019-04-28T09:01:38.073Z,1011.39
2019-04-28T09:02:38.060Z,1011.43
2019-04-28T09:03:38.335Z,1011.42
2019-04-28T09:04:38.058Z,1011.45
2019-04-28T09:05:38.070Z,1011.48
2019-04-28T09:06:38.032Z,1011.43
2019-04-28T09:07:38.005Z,1011.48
2019-04-28T09:08:38.015Z,1011.47
2019-04-28T09:09:37.984Z,1011.49
2019-04-28T09:10:38.001Z,1011.46
2019-04-28T09:11:37.963Z,1011.49
2019-04-28T09:12:37.953Z,1011.49
2019-04-28T09:13:37.941Z,1011.47
2019-04-28T09:14:37.930Z,1011.49
2019-04-28T09:15:37.945Z,1011.52
2019-04-28T09:16:37.909Z,1011.50
2019-04-28T09:17:37.896Z,1011.52
2019-04-28T09:18:37.962Z,1011.58
2019-04-28T09:19:37.875Z,1011.55
2019-04-28T09:20:37.890Z,1011.49
2019-04-28T09:21:37.859Z,1011.55
2019-04-28T09:22:37.845Z,1011.55
2019-04-28T09:23:37.832Z,1011.56
2019-04-28T09:24:37.820Z,1011.57
2019-04-28T09:25:37.833Z,1011.54
2019-04-28T09:26:37.804Z,1011.54
2019-04-28T09:27:37.803Z,1011.59
2019-04-28T09:28:37.823Z,1011.61
2019-04-28T09:29:37.767Z,1011.57
2019-04-28T09:30:37.808Z,1011.56
2019-04-28T09:31:37.748Z,1011.64
2019-04-28T09:32:37.735Z,1011.60
2019-04-28T09:33:37.722Z,1011.61
2019-04-28T09:34:37.711Z,1011.61
2019-04-28T09:35:37.697Z,1011.59
2019-04-28T09:36:37.716Z,1011.64
2019-04-28T09:37:37.677Z,1011.60
2019-04-28T09:38:37.668Z,1011.57
2019-04-28T09:39:37.657Z,1011.63
2019-04-28T09:40:37.644Z,1011.57
2019-04-28T09:41:37.670Z,1011.59
2019-04-28T09:42:37.623Z,1011.62
2019-04-28T09:43:37.615Z,1011.62
2019-04-28T09:44:37.599Z,1011.65
2019-04-28T09:45:37.588Z,1011.66
2019-04-28T09:46:37.578Z,1011.70
2019-04-28T09:47:37.595Z,1011.62
2019-04-28T09:48:37.555Z,1011.69
2019-04-28T09:49:37.544Z,1011.67
2019-04-28T09:50:37.533Z,1011.73
2019-04-28T09:51:37.523Z,1011.72
2019-04-28T09:52:37.604Z,1011.77
2019-04-28T09:53:37.550Z,1011.74
2019-04-28T09:54:37.492Z,1011.80
2019-04-28T09:55:37.481Z,1011.77
2019-04-28T09:56:37.473Z,1011.77
2019-04-28T09:57:37.498Z,1011.80
2019-04-28T09:58:37.451Z,1011.79
2019-04-28T09:59:37.442Z,1011.78
2019-04-28T10:00:37.427Z,1011.75
2019-04-28T10:01:37.417Z,1011.81
2019-04-28T10:02:37.407Z,1011.84
2019-04-28T10:03:37.423Z,1011.80
2019-04-28T10:04:41.699Z,1011.84
2019-04-28T10:05:37.385Z,1011.86
2019-04-28T10:06:37.388Z,1011.83
2019-04-28T10:07:37.350Z,1011.85
2019-04-28T10:08:37.362Z,1011.81
2019-04-28T10:09:37.326Z,1011.82
2019-04-28T10:10:37.316Z,1011.86
2019-04-28T10:11:37.304Z,1011.90
2019-04-28T10:12:37.294Z,1011.85
2019-04-28T10:13:37.308Z,1011.91
2019-04-28T10:14:38.252Z,1011.89
2019-04-28T10:15:37.262Z,1011.89
2019-04-28T10:16:37.252Z,1011.91
2019-04-28T10:17:37.239Z,1011.92
2019-04-28T10:18:37.267Z,1011.95
2019-04-28T10:19:37.220Z,1011.95
2019-04-28T10:20:37.208Z,1011.96
2019-04-28T10:21:37.197Z,1011.95
2019-04-28T10:22:37.187Z,1011.98
2019-04-28T10:23:37.174Z,1012.02
2019-04-28T10:24:37.186Z,1011.98
2019-04-28T10:25:37.154Z,1011.98
2019-04-28T10:26:37.142Z,1012.02
2019-04-28T10:27:37.129Z,1012.05
2019-04-28T10:28:37.120Z,1012.00
2019-04-28T10:29:37.146Z,1011.99
2019-04-28T10:30:37.099Z,1012.00
2019-04-28T10:31:37.088Z,1011.99
2019-04-28T10:32:37.083Z,1011.97
2019-04-28T10:33:37.069Z,1011.97
2019-04-28T10:34:37.055Z,1011.99
2019-04-28T10:35:37.072Z,1012.01
2019-04-28T10:36:37.035Z,1011.95
2019-04-28T10:37:37.023Z,1012.01
2019-04-28T10:38:37.012Z,1011.96
2019-04-28T10:39:37.000Z,1012.00
2019-04-28T10:40:37.028Z,1011.89
2019-04-28T10:41:36.979Z,1011.93
2019-04-28T10:42:36.967Z,1011.91
2019-04-28T10:43:36.955Z,1011.92
2019-04-28T10:44:36.944Z,1011.92
2019-04-28T10:45:36.963Z,1011.86
2019-04-28T10:46:36.921Z,1011.90
2019-04-28T10:47:36.914Z,1011.91
2019-04-28T10:48:36.899Z,1011.91
2019-04-28T10:49:36.894Z,1011.88
2019-04-28T10:50:36.920Z,1011.89
2019-04-28T10:51:36.873Z,1011.92
2019-04-28T10:52:36.858Z,1011.90
2019-04-28T10:53:36.847Z,1011.87
2019-04-28T10:54:36.837Z,1011.84
2019-04-28T10:55:36.971Z,1011.85
2019-04-28T10:56:36.840Z,1011.88
2019-04-28T10:57:36.878Z,1011.91
2019-04-28T10:58:36.790Z,1011.90
2019-04-28T10:59:36.780Z,1011.94
2019-04-28T11:00:36.769Z,1011.94
2019-04-28T11:01:36.799Z,1011.96
2019-04-28T11:02:36.748Z,1011.91
2019-04-28T11:03:36.737Z,1011.94
2019-04-28T11:04:36.776Z,1011.89
2019-04-28T11:05:36.736Z,1011.94
2019-04-28T11:06:36.703Z,1011.96
2019-04-28T11:07:36.717Z,1011.99
2019-04-28T11:08:36.703Z,1011.96
2019-04-28T11:09:36.671Z,1012.02
2019-04-28T11:10:36.661Z,1012.02
2019-04-28T11:11:36.656Z,1012.07
2019-04-28T11:12:36.662Z,1012.10
2019-04-28T11:13:36.626Z,1012.08
2019-04-28T11:14:36.628Z,1012.04
2019-04-28T11:15:36.607Z,1012.05
2019-04-28T11:16:36.594Z,1012.01
2019-04-28T11:17:36.623Z,1012.01
2019-04-28T11:18:36.572Z,1012.01
2019-04-28T11:19:36.565Z,1012.02
2019-04-28T11:20:36.548Z,1011.99
2019-04-28T11:21:36.539Z,1012.00
2019-04-28T11:22:36.529Z,1012.06
2019-04-28T11:23:36.601Z,1012.06
2019-04-28T11:24:36.508Z,1012.02
2019-04-28T11:25:36.512Z,1012.06
2019-04-28T11:26:36.484Z,1012.02
2019-04-28T11:27:36.473Z,1012.04
2019-04-28T11:28:37.925Z,1012.03
2019-04-28T11:29:36.453Z,1012.03
2019-04-28T11:30:36.441Z,1012.06
2019-04-28T11:31:36.427Z,1012.12
2019-04-28T11:32:36.416Z,1012.14
2019-04-28T11:33:36.409Z,1012.13
2019-04-28T11:34:36.432Z,1012.12
2019-04-28T11:35:36.389Z,1012.08
2019-04-28T11:36:36.379Z,1012.14
2019-04-28T11:37:36.364Z,1012.13
2019-04-28T11:38:36.358Z,1012.13
2019-04-28T11:39:36.347Z,1012.11
2019-04-28T11:40:36.354Z,1012.13
2019-04-28T11:41:36.554Z,1012.19
2019-04-28T11:42:36.311Z,1012.17
2019-04-28T11:43:36.298Z,1012.10
2019-04-28T11:44:36.294Z,1012.16
2019-04-28T11:45:36.303Z,1012.19
2019-04-28T11:46:36.268Z,1012.19
2019-04-28T11:47:36.255Z,1012.21
2019-04-28T11:48:36.244Z,1012.24
2019-04-28T11:49:36.234Z,1012.20
2019-04-28T11:50:36.261Z,1012.19
2019-04-28T11:51:36.214Z,1012.27
2019-04-28T11:52:36.211Z,1012.25
2019-04-28T11:53:36.191Z,1012.26
2019-04-28T11:54:36.183Z,1012.31
2019-04-28T11:55:36.168Z,1012.20
2019-04-28T11:56:41.739Z,1012.22
2019-04-28T11:57:37.145Z,1012.20
2019-04-28T11:58:36.137Z,1012.22
2019-04-28T11:59:36.129Z,1012.22
2019-04-28T12:00:36.120Z,1012.16
2019-04-28T12:01:36.165Z,1012.23
2019-04-28T12:02:36.092Z,1012.20
2019-04-28T12:03:36.079Z,1012.21
2019-04-28T12:04:36.072Z,1012.21
2019-04-28T12:05:38.350Z,1012.22